createdAt,value
2023-09-09T00:02:24.949Z,101365.56
2023-09-09T00:04:55.726Z,101381.44
2023-09-09T00:07:23.301Z,101384.34
2023-09-09T00:09:50.671Z,101360.94
2023-09-09T00:12:18.344Z,101370.16
2023-09-09T00:14:45.434Z,101421.94
2023-09-09T00:17:12.360Z,101415.25
2023-09-09T00:19:39.228Z,101409.38
2023-09-09T00:22:06.114Z,101380.50
2023-09-09T00:24:32.950Z,101377.34
2023-09-09T00:27:02.638Z,101415.34
2023-09-09T00:29:30.670Z,101394.44
2023-09-09T00:31:57.698Z,101423.06
2023-09-09T00:34:24.444Z,101420.13
2023-09-09T00:36:54.354Z,101400.03
2023-09-09T00:39:21.285Z,101410.44
2023-09-09T00:41:49.075Z,101369.09
2023-09-09T00:44:16.081Z,101423.81
2023-09-09T00:46:45.766Z,101422.13
2023-09-09T00:49:13.387Z,101364.81
2023-09-09T00:51:40.398Z,101389.03
2023-09-09T00:54:09.957Z,101408.03
2023-09-09T00:56:37.059Z,101427.09
2023-09-09T00:59:05.304Z,101421.69
2023-09-09T01:01:36.098Z,101430.88
2023-09-09T01:04:08.652Z,101432.16
2023-09-09T01:06:36.436Z,101431.53
2023-09-09T01:09:08.265Z,101429.69
2023-09-09T01:11:35.094Z,101426.34
2023-09-09T01:14:04.037Z,101421.31
2023-09-09T01:16:31.915Z,101429.69
2023-09-09T01:18:58.756Z,101412.97
2023-09-09T01:21:29.715Z,101416.13
2023-09-09T01:23:56.436Z,101397.09
2023-09-09T01:26:23.308Z,101341.16
2023-09-09T01:28:52.627Z,101424.72
2023-09-09T01:31:20.152Z,101400.44
2023-09-09T01:33:47.494Z,101363.31
2023-09-09T01:36:15.501Z,101402.78
2023-09-09T01:38:42.280Z,101404.25
2023-09-09T01:41:09.114Z,101431.19
2023-09-09T01:43:36.130Z,101426.38
2023-09-09T01:46:05.088Z,101427.22
2023-09-09T01:48:32.308Z,101424.72
2023-09-09T01:51:00.107Z,101433.25
2023-09-09T01:53:29.625Z,101423.44
2023-09-09T01:55:59.500Z,101414.63
2023-09-09T01:58:26.483Z,101416.50
2023-09-09T02:00:53.386Z,101421.09
2023-09-09T02:03:20.721Z,101402.88
2023-09-09T02:05:47.667Z,101387.81
2023-09-09T02:08:14.732Z,101380.94
2023-09-09T02:10:42.816Z,101370.25
2023-09-09T02:13:20.652Z,101387.59
2023-09-09T02:15:48.274Z,101382.38
2023-09-09T02:18:15.210Z,101408.25
2023-09-09T02:20:44.344Z,101376.91
2023-09-09T02:23:11.754Z,101375.88
2023-09-09T02:25:38.794Z,101403.25
2023-09-09T02:28:05.956Z,101288.34
2023-09-09T02:30:32.943Z,101386.53
2023-09-09T02:33:02.685Z,101394.47
2023-09-09T02:35:30.129Z,101399.91
2023-09-09T02:38:03.288Z,101419.97
2023-09-09T02:40:30.230Z,101389.44
2023-09-09T02:42:57.403Z,101415.97
2023-09-09T02:45:28.230Z,101397.19
2023-09-09T02:47:55.394Z,101373.69
2023-09-09T02:50:24.588Z,101411.97
2023-09-09T02:52:52.990Z,101405.28
2023-09-09T02:55:27.919Z,101414.03
2023-09-09T02:57:54.948Z,101417.38
2023-09-09T03:00:22.337Z,101387.88
2023-09-09T03:02:54.154Z,101365.09
2023-09-09T03:05:22.531Z,101424.88
2023-09-09T03:07:50.942Z,101406.50
2023-09-09T03:10:17.827Z,101395.75
2023-09-09T03:12:44.553Z,101418.97
2023-09-09T03:15:11.417Z,101418.13
2023-09-09T03:17:38.288Z,101405.78
2023-09-09T03:20:06.785Z,101372.69
2023-09-09T03:22:33.837Z,101345.94
2023-09-09T03:25:00.788Z,101344.03
2023-09-09T03:27:27.563Z,101408.00
2023-09-09T03:30:00.376Z,101416.31
2023-09-09T03:32:27.346Z,101391.13
2023-09-09T03:34:54.394Z,101341.09
2023-09-09T03:37:23.093Z,101403.00
2023-09-09T03:39:53.171Z,101422.00
2023-09-09T03:42:19.813Z,101422.59
2023-09-09T03:44:47.043Z,101367.78
2023-09-09T03:47:14.095Z,101429.00
2023-09-09T03:49:43.543Z,101428.94
2023-09-09T03:52:11.236Z,101418.66
2023-09-09T03:54:39.630Z,101429.53
2023-09-09T03:57:06.552Z,101429.13
2023-09-09T03:59:34.478Z,101388.16
2023-09-09T04:02:01.650Z,101399.06
2023-09-09T04:04:34.533Z,101421.59
2023-09-09T04:07:01.326Z,101424.69
2023-09-09T04:09:32.991Z,101407.72
2023-09-09T04:11:59.699Z,101321.69
2023-09-09T04:14:26.611Z,101406.69
2023-09-09T04:16:53.550Z,101416.50
2023-09-09T04:19:20.519Z,101390.34
2023-09-09T04:21:55.478Z,101413.78
2023-09-09T04:24:22.566Z,101396.38
2023-09-09T04:26:50.107Z,101382.41
2023-09-09T04:29:16.961Z,101408.38
2023-09-09T04:31:46.802Z,101345.00
2023-09-09T04:34:14.136Z,101431.41
2023-09-09T04:36:42.591Z,101415.28
2023-09-09T04:39:09.542Z,101393.16
2023-09-09T04:41:36.995Z,101418.84
2023-09-09T04:44:04.993Z,101433.25
2023-09-09T04:46:32.114Z,101430.13
2023-09-09T04:48:59.044Z,101427.59
2023-09-09T04:51:34.099Z,101418.00
2023-09-09T04:54:05.075Z,101330.34
2023-09-09T04:56:31.939Z,101412.34
2023-09-09T04:58:58.831Z,101371.78
2023-09-09T05:01:25.831Z,101414.03
2023-09-09T05:03:52.619Z,101428.63
2023-09-09T05:06:19.316Z,101423.56
2023-09-09T05:08:47.498Z,101428.25
2023-09-09T05:11:14.430Z,101391.63
2023-09-09T05:13:44.181Z,101369.97
2023-09-09T05:16:11.025Z,101420.59
2023-09-09T05:18:37.843Z,101424.22
2023-09-09T05:21:04.649Z,101411.59
2023-09-09T05:23:48.397Z,101404.88
2023-09-09T05:26:19.421Z,101428.97
2023-09-09T05:28:46.144Z,101414.72
2023-09-09T05:31:14.188Z,101437.84
2023-09-09T05:33:41.193Z,101389.78
2023-09-09T05:36:08.606Z,101435.59
2023-09-09T05:38:50.513Z,101393.63
2023-09-09T05:41:25.292Z,101427.00
2023-09-09T05:43:52.270Z,101435.00
2023-09-09T05:46:19.965Z,101410.94
2023-09-09T05:48:47.488Z,101378.09
2023-09-09T05:51:28.504Z,101424.31
2023-09-09T05:54:03.393Z,101451.50
2023-09-09T05:56:30.467Z,101422.88
2023-09-09T05:58:57.340Z,101436.91
2023-09-09T06:01:24.173Z,101450.03
2023-09-09T06:03:58.904Z,101456.34
2023-09-09T06:06:26.318Z,101451.97
2023-09-09T06:08:53.155Z,101447.72
2023-09-09T06:11:24.505Z,101424.53
2023-09-09T06:13:52.954Z,101461.81
2023-09-09T06:16:20.481Z,101472.31
2023-09-09T06:18:51.519Z,101467.75
2023-09-09T06:21:18.596Z,101446.88
2023-09-09T06:23:45.542Z,101464.06
2023-09-09T06:26:12.394Z,101471.16
2023-09-09T06:28:39.475Z,101409.25
2023-09-09T06:31:06.398Z,101445.97
2023-09-09T06:33:33.257Z,101455.59
2023-09-09T06:36:00.063Z,101470.84
2023-09-09T06:38:27.091Z,101478.97
2023-09-09T06:40:54.249Z,101478.38
2023-09-09T06:43:21.888Z,101483.66
2023-09-09T06:45:49.809Z,101436.22
2023-09-09T06:48:21.286Z,101472.00
2023-09-09T06:50:50.944Z,101477.81
2023-09-09T06:53:19.747Z,101473.50
2023-09-09T06:55:47.977Z,101486.25
2023-09-09T06:58:21.064Z,101421.63
2023-09-09T07:00:55.064Z,101465.59
2023-09-09T07:03:22.465Z,101497.44
2023-09-09T07:05:49.891Z,101484.06
2023-09-09T07:08:20.640Z,101479.22
2023-09-09T07:10:52.417Z,101488.88
2023-09-09T07:13:20.888Z,101475.13
2023-09-09T07:15:48.192Z,101495.41
2023-09-09T07:18:15.510Z,101406.78
2023-09-09T07:20:43.442Z,101492.91
2023-09-09T07:23:16.719Z,101493.78
2023-09-09T07:25:48.555Z,101495.44
2023-09-09T07:28:18.727Z,101475.38
2023-09-09T07:30:50.067Z,101487.53
2023-09-09T07:33:18.688Z,101430.69
2023-09-09T07:35:49.311Z,101498.84
2023-09-09T07:38:17.116Z,101498.00
2023-09-09T07:40:44.150Z,101434.47
2023-09-09T07:43:11.151Z,101498.63
2023-09-09T07:45:51.479Z,101478.81
2023-09-09T07:48:20.220Z,101480.91
2023-09-09T07:50:54.788Z,101473.19
2023-09-09T07:53:22.607Z,101417.38
2023-09-09T07:55:50.699Z,101476.72
2023-09-09T07:58:19.183Z,101486.13
2023-09-09T08:00:48.330Z,101457.91
2023-09-09T08:03:17.248Z,101469.19
2023-09-09T08:05:44.568Z,101485.72
2023-09-09T08:08:11.780Z,101431.59
2023-09-09T08:10:38.619Z,101471.72
2023-09-09T08:13:06.079Z,101487.16
2023-09-09T08:18:02.892Z,101484.88
2023-09-09T08:20:31.917Z,101458.13
2023-09-09T08:22:58.763Z,101492.41
2023-09-09T08:25:26.444Z,101484.25
2023-09-09T08:27:54.596Z,101484.41
2023-09-09T08:30:21.502Z,101478.59
2023-09-09T08:32:48.299Z,101500.13
2023-09-09T08:35:15.235Z,101496.34
2023-09-09T08:37:42.379Z,101502.19
2023-09-09T08:40:10.291Z,101499.88
2023-09-09T08:42:44.291Z,101415.72
2023-09-09T08:45:30.444Z,101439.94
2023-09-09T08:48:00.137Z,101490.66
2023-09-09T08:50:30.796Z,101498.34
2023-09-09T08:53:03.113Z,101470.34
2023-09-09T08:55:33.114Z,101487.47
2023-09-09T08:58:01.367Z,101501.00
2023-09-09T09:00:36.116Z,101482.88
2023-09-09T09:03:03.707Z,101444.19
2023-09-09T09:05:35.102Z,101501.19
2023-09-09T09:08:03.242Z,101501.38
2023-09-09T09:10:31.949Z,101477.53
2023-09-09T09:13:03.526Z,101492.34
2023-09-09T09:15:34.263Z,101438.47
2023-09-09T09:18:01.340Z,101461.41
2023-09-09T09:20:33.337Z,101482.59
2023-09-09T09:23:05.431Z,101489.25
2023-09-09T09:25:47.133Z,101473.56
2023-09-09T09:28:22.877Z,101484.09
2023-09-09T09:30:51.236Z,101470.84
2023-09-09T09:33:24.995Z,101471.38
2023-09-09T09:35:51.915Z,101478.53
2023-09-09T09:38:19.411Z,101465.69
2023-09-09T09:40:46.558Z,101377.69
2023-09-09T09:43:20.981Z,101454.66
2023-09-09T09:45:48.362Z,101476.81
2023-09-09T09:48:28.893Z,101456.97
2023-09-09T09:50:56.171Z,101455.22
2023-09-09T09:53:23.909Z,101476.63
2023-09-09T09:55:52.130Z,101464.69
2023-09-09T09:58:23.025Z,101479.81
2023-09-09T10:00:53.239Z,101457.63
2023-09-09T10:03:32.068Z,101456.81
2023-09-09T10:05:59.152Z,101452.09
2023-09-09T10:08:37.537Z,101431.16
2023-09-09T10:11:08.780Z,101433.16
2023-09-09T10:13:45.900Z,101461.59
2023-09-09T10:16:14.285Z,101395.41
2023-09-09T10:18:42.726Z,101449.75
2023-09-09T10:21:10.797Z,101455.34
2023-09-09T10:23:39.734Z,101458.59
2023-09-09T10:26:09.157Z,101425.19
2023-09-09T10:28:37.647Z,101459.06
2023-09-09T10:31:06.757Z,101445.66
2023-09-09T10:33:34.175Z,101429.75
2023-09-09T10:36:01.517Z,101452.06
2023-09-09T10:38:31.398Z,101431.84
2023-09-09T10:40:59.164Z,101443.75
2023-09-09T10:43:26.109Z,101435.19
2023-09-09T10:45:55.883Z,101418.31
2023-09-09T10:48:25.202Z,101415.31
2023-09-09T10:50:56.314Z,101378.28
2023-09-09T10:53:23.529Z,101426.88
2023-09-09T10:55:55.073Z,101435.19
2023-09-09T10:58:35.048Z,101421.03
2023-09-09T11:01:02.502Z,101412.50
2023-09-09T11:03:38.003Z,101355.38
2023-09-09T11:06:19.568Z,101415.19
2023-09-09T11:08:48.110Z,101415.78
2023-09-09T11:11:19.504Z,101411.84
2023-09-09T11:14:06.369Z,101404.19
2023-09-09T11:16:40.644Z,101410.75
2023-09-09T11:19:09.054Z,101390.19
2023-09-09T11:21:44.671Z,101390.50
2023-09-09T11:24:11.887Z,101403.22
2023-09-09T11:26:40.352Z,101408.59
2023-09-09T11:29:14.548Z,101391.13
2023-09-09T11:31:44.702Z,101402.63
2023-09-09T11:34:16.142Z,101400.69
2023-09-09T11:36:47.552Z,101403.84
2023-09-09T11:39:14.551Z,101388.72
2023-09-09T11:41:41.509Z,101394.13
2023-09-09T11:44:10.042Z,101384.66
2023-09-09T11:46:39.838Z,101362.00
2023-09-09T11:49:11.820Z,101367.84
2023-09-09T11:51:39.161Z,101386.41
2023-09-09T11:54:10.196Z,101391.44
2023-09-09T11:56:39.745Z,101370.41
2023-09-09T11:59:11.623Z,101388.69
2023-09-09T12:01:46.294Z,101342.53
2023-09-09T12:04:15.158Z,101384.59
2023-09-09T12:06:47.687Z,101378.25
2023-09-09T12:09:15.638Z,101364.91
2023-09-09T12:11:44.159Z,101347.06
2023-09-09T12:14:15.923Z,101373.28
2023-09-09T12:16:46.502Z,101362.00
2023-09-09T12:19:19.105Z,101369.84
2023-09-09T12:21:47.948Z,101369.09
2023-09-09T12:24:18.465Z,101357.56
2023-09-09T12:26:52.695Z,101240.69
2023-09-09T12:29:24.342Z,101328.81
2023-09-09T12:31:57.468Z,101356.31
2023-09-09T12:34:27.510Z,101356.59
2023-09-09T12:36:59.538Z,101329.34
2023-09-09T12:39:28.720Z,101352.06
2023-09-09T12:41:59.133Z,101347.81
2023-09-09T12:44:26.135Z,101346.06
2023-09-09T12:46:54.245Z,101358.22
2023-09-09T12:49:21.658Z,101317.44
2023-09-09T12:51:55.920Z,101350.03
2023-09-09T12:54:23.000Z,101341.97
2023-09-09T12:56:50.496Z,101322.31
2023-09-09T12:59:19.954Z,101354.56
2023-09-09T13:01:50.297Z,101330.41
2023-09-09T13:04:17.187Z,101332.47
2023-09-09T13:06:44.136Z,101331.75
2023-09-09T13:09:10.914Z,101314.44
2023-09-09T13:11:41.056Z,101328.88
2023-09-09T13:16:43.278Z,101342.31
2023-09-09T13:19:10.330Z,101306.31
2023-09-09T13:21:37.362Z,101282.56
2023-09-09T13:24:05.814Z,101331.09
2023-09-09T13:26:32.741Z,101330.34
2023-09-09T13:28:59.658Z,101314.19
2023-09-09T13:31:26.568Z,101299.66
2023-09-09T13:33:53.467Z,101312.34
2023-09-09T13:36:23.980Z,101331.09
2023-09-09T13:38:50.914Z,101325.53
2023-09-09T13:41:19.294Z,101313.81
2023-09-09T13:43:46.434Z,101315.22
2023-09-09T13:46:20.127Z,101317.94
2023-09-09T13:48:46.882Z,101301.00
2023-09-09T13:51:24.172Z,101302.06
2023-09-09T13:53:59.038Z,101306.78
2023-09-09T13:56:31.206Z,101312.00
2023-09-09T13:58:59.018Z,101307.50
2023-09-09T14:01:26.455Z,101300.97
2023-09-09T14:04:02.464Z,101292.66
2023-09-09T14:06:29.458Z,101299.53
2023-09-09T14:08:56.241Z,101260.50
2023-09-09T14:11:23.099Z,101303.81
2023-09-09T14:13:49.858Z,101300.94
2023-09-09T14:16:16.633Z,101230.00
2023-09-09T14:18:45.770Z,101294.00
2023-09-09T14:21:12.936Z,101272.97
2023-09-09T14:23:42.177Z,101253.13
2023-09-09T14:26:11.090Z,101272.72
2023-09-09T14:28:38.488Z,101252.72
2023-09-09T14:31:05.997Z,101287.88
2023-09-09T14:33:33.892Z,101257.22
2023-09-09T14:36:00.705Z,101276.50
2023-09-09T14:38:27.799Z,101280.78
2023-09-09T14:40:55.331Z,101275.91
2023-09-09T14:43:23.319Z,101284.91
2023-09-09T14:45:50.452Z,101251.22
2023-09-09T14:48:17.145Z,101282.22
2023-09-09T14:50:44.808Z,101282.47
2023-09-09T14:53:12.059Z,101276.41
2023-09-09T14:55:39.042Z,101257.00
2023-09-09T14:58:06.012Z,101239.44
2023-09-09T15:00:32.861Z,101265.50
2023-09-09T15:02:59.752Z,101280.78
2023-09-09T15:05:26.575Z,101261.47
2023-09-09T15:07:53.749Z,101272.72
2023-09-09T15:10:20.724Z,101252.34
2023-09-09T15:12:56.344Z,101265.13
2023-09-09T15:15:24.717Z,101265.94
2023-09-09T15:17:51.525Z,101221.13
2023-09-09T15:20:18.332Z,101267.84
2023-09-09T15:22:45.065Z,101246.38
2023-09-09T15:25:11.946Z,101263.00
2023-09-09T15:27:38.679Z,101283.88
2023-09-09T15:30:14.618Z,101279.25
2023-09-09T15:32:46.077Z,101236.28
2023-09-09T15:35:13.682Z,101269.06
2023-09-09T15:37:40.459Z,101263.72
2023-09-09T15:40:08.997Z,101294.81
2023-09-09T15:42:44.629Z,101242.69
2023-09-09T15:45:12.866Z,101243.53
2023-09-09T15:47:40.808Z,101271.19
2023-09-09T15:50:16.644Z,101267.72
2023-09-09T15:52:44.835Z,101277.81
2023-09-09T15:55:13.051Z,101272.59
2023-09-09T15:57:43.916Z,101242.09
2023-09-09T16:00:13.030Z,101269.16
2023-09-09T16:02:39.882Z,101255.78
2023-09-09T16:05:10.946Z,101263.38
2023-09-09T16:07:39.265Z,101229.19
2023-09-09T16:10:07.063Z,101270.97
2023-09-09T16:12:34.002Z,101253.97
2023-09-09T16:15:06.908Z,101266.09
2023-09-09T16:17:43.821Z,101263.97
2023-09-09T16:20:19.715Z,101267.84
2023-09-09T16:22:46.499Z,101247.31
2023-09-09T16:25:13.391Z,101247.81
2023-09-09T16:27:47.093Z,101255.28
2023-09-09T16:30:21.659Z,101263.69
2023-09-09T16:32:58.283Z,101269.16
2023-09-09T16:35:30.048Z,101259.81
2023-09-09T16:37:57.754Z,101204.47
2023-09-09T16:40:30.903Z,101277.94
2023-09-09T16:43:05.284Z,101259.06
2023-09-09T16:45:32.503Z,101273.81
2023-09-09T16:47:59.454Z,101258.25
2023-09-09T16:50:32.564Z,101283.19
2023-09-09T16:52:59.346Z,101279.84
2023-09-09T16:55:26.869Z,101257.28
2023-09-09T16:57:59.375Z,101279.31
2023-09-09T17:03:09.302Z,101261.09
2023-09-09T17:05:43.989Z,101275.47
2023-09-09T17:08:15.628Z,101259.03
2023-09-09T17:10:46.143Z,101253.63
2023-09-09T17:13:12.963Z,101254.59
2023-09-09T17:15:42.137Z,101245.94
2023-09-09T17:18:10.019Z,101277.00
2023-09-09T17:20:37.125Z,101285.53
2023-09-09T17:23:04.509Z,101285.19
2023-09-09T17:25:31.516Z,101290.63
2023-09-09T17:28:07.427Z,101285.50
2023-09-09T17:30:34.721Z,101283.09
2023-09-09T17:33:02.109Z,101274.66
2023-09-09T17:35:30.142Z,101297.00
2023-09-09T17:38:04.851Z,101256.31
2023-09-09T17:40:39.845Z,101286.66
2023-09-09T17:43:06.577Z,101314.19
2023-09-09T17:45:33.500Z,101280.09
2023-09-09T17:48:00.648Z,101309.28
2023-09-09T17:50:27.658Z,101291.88
2023-09-09T17:52:59.561Z,101305.69
2023-09-09T17:55:26.573Z,101323.25
2023-09-09T17:57:53.298Z,101334.75
2023-09-09T18:00:20.123Z,101331.44
2023-09-09T18:02:48.900Z,101258.78
2023-09-09T18:05:16.685Z,101334.63
2023-09-09T18:07:44.083Z,101317.91
2023-09-09T18:10:11.094Z,101233.41
2023-09-09T18:12:41.639Z,101320.91
2023-09-09T18:15:09.030Z,101257.13
2023-09-09T18:17:36.156Z,101356.44
2023-09-09T18:20:05.393Z,101363.06
2023-09-09T18:22:32.303Z,101351.84
2023-09-09T18:24:59.040Z,101343.66
2023-09-09T18:27:29.003Z,101375.94
2023-09-09T18:29:55.851Z,101380.91
2023-09-09T18:32:22.770Z,101382.22
2023-09-09T18:34:58.093Z,101377.28
2023-09-09T18:37:25.671Z,101385.34
2023-09-09T18:39:52.580Z,101385.53
2023-09-09T18:42:19.416Z,101398.34
2023-09-09T18:44:46.251Z,101371.69
2023-09-09T18:47:14.303Z,101396.28
2023-09-09T18:49:41.147Z,101344.59
2023-09-09T18:52:21.083Z,101386.75
2023-09-09T18:54:47.867Z,101371.31
2023-09-09T18:57:15.891Z,101403.00
2023-09-09T18:59:42.766Z,101357.31
2023-09-09T19:02:09.790Z,101381.91
2023-09-09T19:04:36.817Z,101381.41
2023-09-09T19:07:03.956Z,101416.03
2023-09-09T19:09:31.002Z,101404.22
2023-09-09T19:11:57.943Z,101408.16
2023-09-09T19:14:24.871Z,101420.88
2023-09-09T19:16:51.601Z,101420.94
2023-09-09T19:19:18.541Z,101407.63
2023-09-09T19:21:53.246Z,101388.06
2023-09-09T19:24:21.683Z,101418.72
2023-09-09T19:26:48.591Z,101412.97
2023-09-09T19:29:15.707Z,101403.66
2023-09-09T19:31:42.695Z,101423.53
2023-09-09T19:34:09.758Z,101381.13
2023-09-09T19:36:43.973Z,101399.00
2023-09-09T19:39:11.439Z,101364.59
2023-09-09T19:41:38.991Z,101438.44
2023-09-09T19:44:12.875Z,101397.16
2023-09-09T19:46:39.817Z,101428.00
2023-09-09T19:49:08.619Z,101408.25
2023-09-09T19:51:43.684Z,101435.22
2023-09-09T19:54:14.817Z,101434.19
2023-09-09T19:56:42.382Z,101388.56
2023-09-09T19:59:10.589Z,101411.53
2023-09-09T20:01:38.288Z,101428.19
2023-09-09T20:04:05.422Z,101421.13
2023-09-09T20:06:32.494Z,101433.28
2023-09-09T20:08:59.517Z,101409.97
2023-09-09T20:11:26.893Z,101432.25
2023-09-09T20:13:56.511Z,101395.38
2023-09-09T20:16:23.397Z,101420.41
2023-09-09T20:18:55.108Z,101438.81
2023-09-09T20:21:22.055Z,101441.34
2023-09-09T20:23:48.768Z,101442.16
2023-09-09T20:26:15.689Z,101403.63
2023-09-09T20:28:42.876Z,101432.19
2023-09-09T20:31:09.992Z,101416.78
2023-09-09T20:33:36.798Z,101450.19
2023-09-09T20:36:05.373Z,101431.66
2023-09-09T20:38:32.325Z,101407.28
2023-09-09T20:41:03.153Z,101440.25
2023-09-09T20:43:30.149Z,101455.69
2023-09-09T20:46:07.569Z,101446.13
2023-09-09T20:48:34.385Z,101445.72
2023-09-09T20:51:04.480Z,101451.78
2023-09-09T20:53:37.110Z,101431.56
2023-09-09T20:56:13.745Z,101437.81
2023-09-09T20:58:41.987Z,101455.38
2023-09-09T21:01:09.693Z,101380.22
2023-09-09T21:03:38.788Z,101460.81
2023-09-09T21:06:10.104Z,101457.03
2023-09-09T21:08:41.081Z,101423.84
2023-09-09T21:11:09.120Z,101462.47
2023-09-09T21:13:36.060Z,101427.81
2023-09-09T21:16:03.118Z,101458.31
2023-09-09T21:18:36.772Z,101446.19
2023-09-09T21:21:04.154Z,101462.88
2023-09-09T21:23:31.097Z,101456.22
2023-09-09T21:25:59.347Z,101419.06
2023-09-09T21:28:34.673Z,101447.88
2023-09-09T21:31:01.748Z,101455.84
2023-09-09T21:33:28.679Z,101458.34
2023-09-09T21:35:57.053Z,101437.25
2023-09-09T21:38:26.972Z,101459.59
2023-09-09T21:40:53.716Z,101462.09
2023-09-09T21:43:20.916Z,101451.22
2023-09-09T21:45:48.205Z,101459.38
2023-09-09T21:48:15.278Z,101459.16
2023-09-09T21:50:42.818Z,101458.78
2023-09-09T21:53:09.719Z,101451.66
2023-09-09T21:55:42.920Z,101448.09
2023-09-09T21:58:12.120Z,101428.69
2023-09-09T22:00:40.520Z,101457.09
2023-09-09T22:03:07.611Z,101444.78
2023-09-09T22:05:34.608Z,101342.22
2023-09-09T22:08:10.322Z,101460.00
2023-09-09T22:10:37.659Z,101459.59
2023-09-09T22:13:05.137Z,101400.47
2023-09-09T22:15:36.605Z,101446.22
2023-09-09T22:18:06.876Z,101458.78
2023-09-09T22:20:36.443Z,101453.94
2023-09-09T22:23:04.533Z,101439.53
2023-09-09T22:25:35.933Z,101451.66
2023-09-09T22:28:02.838Z,101460.84
2023-09-09T22:30:32.044Z,101422.38
2023-09-09T22:32:58.888Z,101426.34
2023-09-09T22:35:27.289Z,101464.13
2023-09-09T22:38:02.124Z,101439.94
2023-09-09T22:40:37.593Z,101403.56
2023-09-09T22:43:06.088Z,101451.19
2023-09-09T22:45:46.951Z,101460.38
2023-09-09T22:48:14.098Z,101447.63
2023-09-09T22:50:41.029Z,101430.50
2023-09-09T22:53:08.627Z,101425.69
2023-09-09T22:55:37.239Z,101433.63
2023-09-09T22:58:09.202Z,101300.94
2023-09-09T23:00:36.147Z,101447.81
2023-09-09T23:03:03.120Z,101438.59
2023-09-09T23:05:32.858Z,101441.50
2023-09-09T23:08:03.726Z,101438.81
2023-09-09T23:10:32.352Z,101437.34
2023-09-09T23:12:59.012Z,101442.16
2023-09-09T23:15:26.133Z,101442.56
2023-09-09T23:17:52.979Z,101449.88
2023-09-09T23:20:28.521Z,101409.97
2023-09-09T23:23:02.329Z,101447.56
2023-09-09T23:25:29.565Z,101444.84
2023-09-09T23:27:56.589Z,101429.00
2023-09-09T23:30:28.763Z,101408.56
2023-09-09T23:32:55.894Z,101438.63
2023-09-09T23:35:26.338Z,101442.00
2023-09-09T23:37:53.721Z,101432.59
2023-09-09T23:40:29.282Z,101417.31
2023-09-09T23:42:57.401Z,101429.44
2023-09-09T23:45:24.836Z,101389.06
2023-09-09T23:48:03.363Z,101428.34
2023-09-09T23:50:40.576Z,101437.31
2023-09-09T23:53:07.388Z,101431.19
2023-09-09T23:55:42.121Z,101429.72
2023-09-09T23:58:10.228Z,101431.19
